Startpagina
METAR-TAF:

METAR-TAF

Vliegvelden :

Internationale luchthaven Xi'an Xianyang

Xi'an, China

breedte: 34-26N, lengte: 108-45E, hoogte: 479 m

Actueel weer

Dit bericht is 1 uur en het 6 minuten geleden gemaakt, om 21:00 UTC
Wind 4 kt uit het noordoosten
Temperatuur 23°C
Vochtigheid 78%
Druk 1005 hPa
Zicht 10 km of meer
geen wolken onder 1500 m en geen cumulonimbus

METAR: ZLXY 182100Z 04002MPS CAVOK 23/19 Q1005 NOSIG

Tijdstip: 06:06 (22:06 UTC)

Verwachting

Dit bericht is 6 uur en het 56 minuten geleden gemaakt, om 15:10 UTC
Verwachting geldig van 18 om 18 UTC tot 19 om 18 UTC
Wind 6 kt uit het oostnoordoosten
Zicht: 5000 m
Heiigheid

TAF: ZLXY 181510Z 1818/1918 06003MPS 5000 HZ NSC TX35/1908Z TN22/1821Z

Waarnemingen en weersverwachtingen van meer dan 4000 vliegvelden (METAR en TAF).

De beschikbare stations zijn de gele en rode punten op de kaart.

Ga met uw muis naar het station om de naam te zien.

Klik dan om waarnemingen en weersverwachtingen te zien.

kaart wijzigen: klik op de groene knoppen met een zwart kruis om in te zoomen, op de groene knop met een streepje om uit te zoomen of op de groene pijlen voor aangrenzende kaarten.


METAR-TAF: